Time,TemperatureF,DewpointF,PressureIn,WindDirection,WindDirectionDegrees,WindSpeedMPH,WindSpeedGustMPH,Humidity,HourlyPrecipIn,Conditions,Clouds,dailyrainin,SoftwareType,DateUTC
2013-02-25 00:02:00,31.0,28.0,29.88,ENE,74,0.0,2.0,89,0.00,,,0.00,,2013-02-25 06:02:00,
2013-02-25 00:21:00,31.0,28.0,29.88,ENE,69,0.0,1.0,89,0.00,,,0.00,,2013-02-25 06:21:00,
2013-02-25 00:31:00,31.0,28.0,29.88,ENE,64,0.0,4.0,90,0.00,,,0.00,,2013-02-25 06:31:00,
2013-02-25 00:52:00,31.0,28.0,29.88,ENE,59,2.0,4.0,90,0.00,,,0.00,,2013-02-25 06:52:00,
2013-02-25 01:01:00,31.0,28.0,29.88,ENE,66,1.0,3.0,90,0.00,,,0.00,,2013-02-25 07:01:00,
2013-02-25 01:11:00,30.0,27.0,29.88,ENE,66,0.0,1.0,90,0.00,,,0.00,,2013-02-25 07:11:00,
2013-02-25 01:21:00,30.0,27.0,29.88,ENE,66,0.0,1.0,90,0.00,,,0.00,,2013-02-25 07:21:00,
2013-02-25 01:52:00,29.0,27.0,29.90,ENE,64,0.0,2.0,91,0.00,,,0.00,,2013-02-25 07:52:00,
2013-02-25 02:01:00,29.0,27.0,29.90,ENE,64,0.0,2.0,91,0.00,,,0.00,,2013-02-25 08:01:00,
2013-02-25 02:21:00,28.0,26.0,29.89,ENE,64,0.0,0.0,92,0.00,,,0.00,,2013-02-25 08:21:00,
2013-02-25 02:31:00,29.0,27.0,29.88,ENE,67,0.0,2.0,93,0.00,,,0.00,,2013-02-25 08:31:00,
2013-02-25 02:52:00,29.0,27.0,29.87,East,80,0.0,2.0,94,0.00,,,0.00,,2013-02-25 08:52:00,
2013-02-25 03:01:00,31.0,29.0,29.86,East,80,0.0,2.0,93,0.00,,,0.00,,2013-02-25 09:01:00,
2013-02-25 03:21:00,31.0,29.0,29.85,ESE,105,0.0,2.0,93,0.00,,,0.00,,2013-02-25 09:21:00,
2013-02-25 03:32:00,32.0,30.0,29.85,ENE,74,0.0,1.0,91,0.00,,,0.00,,2013-02-25 09:32:00,
2013-02-25 03:42:00,32.0,30.0,29.85,ENE,74,0.0,1.0,91,0.00,,,0.00,,2013-02-25 09:42:00,
2013-02-25 03:52:00,32.0,30.0,29.84,ENE,72,0.0,2.0,92,0.00,,,0.00,,2013-02-25 09:52:00,
2013-02-25 04:01:00,32.0,30.0,29.83,ENE,57,0.0,4.0,93,0.00,,,0.00,,2013-02-25 10:01:00,
2013-02-25 04:11:00,32.0,30.0,29.83,ENE,57,0.0,4.0,93,0.00,,,0.00,,2013-02-25 10:11:00,
2013-02-25 04:21:00,33.0,31.0,29.83,East,86,0.0,2.0,93,0.00,,,0.00,,2013-02-25 10:21:00,
2013-02-25 04:32:00,35.0,33.0,29.83,East,89,1.0,4.0,91,0.00,,,0.00,,2013-02-25 10:32:00,
2013-02-25 04:42:00,35.0,33.0,29.83,East,89,1.0,4.0,91,0.00,,,0.00,,2013-02-25 10:42:00,
2013-02-25 04:52:00,38.0,34.0,29.82,East,100,1.0,6.0,84,0.00,,,0.00,,2013-02-25 10:52:00,
2013-02-25 05:01:00,38.0,33.0,29.82,ESE,103,2.0,7.0,82,0.00,,,0.00,,2013-02-25 11:01:00,
2013-02-25 05:11:00,38.0,33.0,29.82,ESE,103,2.0,7.0,82,0.00,,,0.00,,2013-02-25 11:11:00,
2013-02-25 05:21:00,39.0,33.0,29.82,East,90,1.0,7.0,80,0.00,,,0.00,,2013-02-25 11:21:00,
2013-02-25 05:32:00,39.0,33.0,29.83,ESE,122,3.0,7.0,79,0.00,,,0.00,,2013-02-25 11:32:00,
2013-02-25 05:42:00,39.0,33.0,29.83,ESE,122,3.0,7.0,79,0.00,,,0.00,,2013-02-25 11:42:00,
2013-02-25 05:52:00,39.0,33.0,29.82,East,80,3.0,7.0,78,0.00,,,0.00,,2013-02-25 11:52:00,
2013-02-25 06:02:00,38.0,32.0,29.80,ENE,67,2.0,8.0,78,0.00,,,0.00,,2013-02-25 12:02:00,
2013-02-25 06:11:00,38.0,32.0,29.80,ENE,67,2.0,8.0,78,0.00,,,0.00,,2013-02-25 12:11:00,
2013-02-25 06:21:00,38.0,31.0,29.79,ENE,74,2.0,7.0,77,0.00,,,0.00,,2013-02-25 12:21:00,
2013-02-25 06:32:00,38.0,31.0,29.78,East,83,3.0,9.0,76,0.00,,,0.00,,2013-02-25 12:32:00,
2013-02-25 06:42:00,38.0,31.0,29.78,East,83,3.0,9.0,76,0.00,,,0.00,,2013-02-25 12:42:00,
2013-02-25 06:55:00,38.0,31.0,29.78,ENE,74,2.0,7.0,77,0.00,,,0.00,,2013-02-25 12:55:00,
2013-02-25 07:02:00,38.0,31.0,29.78,East,80,2.0,8.0,76,0.00,,,0.00,,2013-02-25 13:02:00,
2013-02-25 07:12:00,38.0,31.0,29.78,East,80,2.0,8.0,76,0.00,,,0.00,,2013-02-25 13:12:00,
2013-02-25 07:22:00,38.0,31.0,29.78,ENE,63,3.0,9.0,76,0.00,,,0.00,,2013-02-25 13:22:00,
2013-02-25 07:32:00,39.0,32.0,29.77,ESE,110,4.0,12.0,75,0.00,,,0.00,,2013-02-25 13:32:00,
2013-02-25 07:42:00,39.0,32.0,29.77,ESE,110,4.0,12.0,75,0.00,,,0.00,,2013-02-25 13:42:00,
2013-02-25 07:52:00,39.0,31.0,29.73,East,98,5.0,10.0,73,0.00,,,0.00,,2013-02-25 13:52:00,
2013-02-25 08:03:00,39.0,31.0,29.72,ESE,113,5.0,13.0,73,0.00,,,0.00,,2013-02-25 14:03:00,
2013-02-25 08:22:00,39.0,31.0,29.71,East,92,5.0,14.0,72,0.00,,,0.00,,2013-02-25 14:22:00,
2013-02-25 08:32:00,40.0,32.0,29.73,ENE,75,5.0,10.0,72,0.00,,,0.00,,2013-02-25 14:32:00,
2013-02-25 08:42:00,40.0,32.0,29.73,ENE,75,5.0,10.0,72,0.00,,,0.00,,2013-02-25 14:42:00,
2013-02-25 08:52:00,40.0,31.0,29.72,ESE,115,5.0,10.0,71,0.00,,,0.00,,2013-02-25 14:52:00,
2013-02-25 09:02:00,40.0,31.0,29.72,ENE,58,4.0,7.0,70,0.00,,,0.00,,2013-02-25 15:02:00,
2013-02-25 09:11:00,40.0,31.0,29.72,ENE,58,4.0,7.0,70,0.00,,,0.00,,2013-02-25 15:11:00,
2013-02-25 09:21:00,41.0,31.0,29.76,South,190,0.0,6.0,68,0.00,,,0.00,,2013-02-25 15:21:00,
2013-02-25 09:32:00,41.0,31.0,29.75,ENE,67,0.0,5.0,68,0.00,,,0.00,,2013-02-25 15:32:00,
2013-02-25 09:41:00,41.0,31.0,29.75,ENE,67,0.0,5.0,68,0.00,,,0.00,,2013-02-25 15:41:00,
2013-02-25 09:52:00,41.0,32.0,29.71,East,84,2.0,5.0,69,0.00,,,0.00,,2013-02-25 15:52:00,
2013-02-25 10:02:00,41.0,32.0,29.68,ESE,123,2.0,7.0,70,0.00,,,0.00,,2013-02-25 16:02:00,
2013-02-25 10:11:00,41.0,32.0,29.68,ESE,123,2.0,7.0,70,0.00,,,0.00,,2013-02-25 16:11:00,
2013-02-25 10:21:00,41.0,32.0,29.76,SSE,162,0.0,5.0,69,0.00,,,0.00,,2013-02-25 16:21:00,
2013-02-25 10:32:00,40.0,33.0,29.70,ENE,76,2.0,8.0,76,0.01,,,0.01,,2013-02-25 16:32:00,
2013-02-25 10:42:00,40.0,33.0,29.70,ENE,76,2.0,8.0,76,0.01,,,0.01,,2013-02-25 16:42:00,
2013-02-25 10:51:00,40.0,33.0,29.67,ESE,114,3.0,8.0,75,0.01,,,0.01,,2013-02-25 16:51:00,
2013-02-25 11:01:00,40.0,33.0,29.66,ENE,78,2.0,6.0,76,0.01,,,0.01,,2013-02-25 17:01:00,
2013-02-25 11:11:00,40.0,33.0,29.66,ENE,78,2.0,6.0,76,0.01,,,0.01,,2013-02-25 17:11:00,
2013-02-25 11:21:00,40.0,33.0,29.65,ENE,65,3.0,11.0,77,0.01,,,0.01,,2013-02-25 17:21:00,
2013-02-25 11:31:00,40.0,33.0,29.65,ENE,65,3.0,11.0,77,0.01,,,0.01,,2013-02-25 17:31:00,
2013-02-25 11:41:00,40.0,33.0,29.65,ENE,65,3.0,11.0,77,0.01,,,0.01,,2013-02-25 17:41:00,
2013-02-25 11:52:00,40.0,34.0,29.62,East,84,4.0,9.0,80,0.02,,,0.03,,2013-02-25 17:52:00,
2013-02-25 12:01:00,39.0,33.0,29.59,East,87,2.0,9.0,80,0.02,,,0.03,,2013-02-25 18:01:00,
2013-02-25 12:12:00,39.0,33.0,29.59,East,87,2.0,9.0,80,0.02,,,0.03,,2013-02-25 18:12:00,
2013-02-25 12:21:00,39.0,33.0,29.57,East,101,5.0,9.0,79,0.02,,,0.03,,2013-02-25 18:21:00,
2013-02-25 12:32:00,40.0,34.0,29.55,East,86,3.0,10.0,78,0.02,,,0.03,,2013-02-25 18:32:00,
2013-02-25 12:42:00,40.0,34.0,29.55,East,86,3.0,10.0,78,0.02,,,0.03,,2013-02-25 18:42:00,
2013-02-25 12:51:00,40.0,33.0,29.55,East,80,3.0,10.0,77,0.00,,,0.03,,2013-02-25 18:51:00,
2013-02-25 13:01:00,40.0,33.0,29.55,East,80,3.0,10.0,77,0.00,,,0.03,,2013-02-25 19:01:00,
2013-02-25 13:11:00,40.0,33.0,29.55,East,80,3.0,10.0,77,0.00,,,0.03,,2013-02-25 19:11:00,
2013-02-25 13:21:00,41.0,33.0,29.61,WNW,285,6.0,10.0,73,0.00,,,0.03,,2013-02-25 19:21:00,
2013-02-25 13:32:00,40.0,35.0,29.62,North,5,0.0,6.0,83,0.02,,,0.05,,2013-02-25 19:32:00,
2013-02-25 13:42:00,40.0,35.0,29.62,North,5,0.0,6.0,83,0.02,,,0.05,,2013-02-25 19:42:00,
2013-02-25 13:52:00,38.0,34.0,29.61,SSE,161,0.0,2.0,87,0.06,,,0.09,,2013-02-25 19:52:00,
2013-02-25 14:01:00,38.0,35.0,29.57,ENE,66,1.0,4.0,88,0.09,,,0.12,,2013-02-25 20:01:00,
2013-02-25 14:11:00,38.0,35.0,29.57,ENE,66,1.0,4.0,88,0.09,,,0.12,,2013-02-25 20:11:00,
2013-02-25 14:21:00,39.0,37.0,29.59,ENE,70,0.0,4.0,91,0.15,,,0.18,,2013-02-25 20:21:00,
2013-02-25 14:32:00,40.0,38.0,29.54,East,90,2.0,9.0,91,0.16,,,0.21,,2013-02-25 20:32:00,
2013-02-25 14:42:00,40.0,38.0,29.54,East,90,2.0,9.0,91,0.16,,,0.21,,2013-02-25 20:42:00,
2013-02-25 14:52:00,40.0,37.0,29.56,South,185,0.0,4.0,89,0.12,,,0.21,,2013-02-25 20:52:00,
2013-02-25 15:01:00,39.0,36.0,29.54,NW,321,0.0,2.0,90,0.10,,,0.22,,2013-02-25 21:01:00,
2013-02-25 15:11:00,39.0,36.0,29.54,NW,321,0.0,2.0,90,0.10,,,0.22,,2013-02-25 21:11:00,
2013-02-25 15:21:00,40.0,37.0,29.55,ENE,69,0.0,4.0,90,0.05,,,0.23,,2013-02-25 21:21:00,
2013-02-25 15:32:00,40.0,38.0,29.53,NNW,340,1.0,6.0,92,0.03,,,0.24,,2013-02-25 21:32:00,
2013-02-25 15:42:00,40.0,38.0,29.53,NNW,340,1.0,6.0,92,0.03,,,0.24,,2013-02-25 21:42:00,
2013-02-25 15:51:00,40.0,38.0,29.54,North,11,0.0,4.0,91,0.04,,,0.25,,2013-02-25 21:51:00,
2013-02-25 16:01:00,40.0,38.0,29.51,ESE,105,0.0,5.0,93,0.03,,,0.25,,2013-02-25 22:01:00,
2013-02-25 16:11:00,40.0,38.0,29.51,ESE,105,0.0,5.0,93,0.03,,,0.25,,2013-02-25 22:11:00,
2013-02-25 16:21:00,40.0,38.0,29.52,NE,53,0.0,4.0,93,0.02,,,0.25,,2013-02-25 22:21:00,
2013-02-25 16:32:00,41.0,39.0,29.52,NE,52,3.0,7.0,91,0.01,,,0.25,,2013-02-25 22:32:00,
2013-02-25 16:42:00,41.0,39.0,29.52,NE,52,3.0,7.0,91,0.01,,,0.25,,2013-02-25 22:42:00,
2013-02-25 16:51:00,41.0,39.0,29.52,ENE,75,0.0,4.0,92,0.02,,,0.27,,2013-02-25 22:51:00,
2013-02-25 17:01:00,41.0,39.0,29.51,ENE,74,2.0,8.0,92,0.04,,,0.28,,2013-02-25 23:01:00,
2013-02-25 17:11:00,41.0,39.0,29.51,ENE,74,2.0,8.0,92,0.04,,,0.28,,2013-02-25 23:11:00,
2013-02-25 17:22:00,41.0,39.0,29.50,NE,51,1.0,7.0,92,0.04,,,0.28,,2013-02-25 23:22:00,
2013-02-25 17:32:00,41.0,39.0,29.49,NE,53,4.0,12.0,92,0.04,,,0.28,,2013-02-25 23:32:00,
2013-02-25 17:42:00,41.0,39.0,29.49,NE,53,4.0,12.0,92,0.04,,,0.28,,2013-02-25 23:42:00,
2013-02-25 17:52:00,41.0,39.0,29.47,SSE,150,3.0,10.0,91,0.02,,,0.28,,2013-02-25 23:52:00,
2013-02-25 18:01:00,41.0,39.0,29.49,ENE,78,4.0,9.0,91,0.00,,,0.28,,2013-02-26 00:01:00,
2013-02-25 18:12:00,41.0,39.0,29.49,ENE,78,4.0,9.0,91,0.00,,,0.28,,2013-02-26 00:12:00,
2013-02-25 18:22:00,41.0,38.0,29.51,East,91,3.0,10.0,90,0.01,,,0.30,,2013-02-26 00:22:00,
2013-02-25 18:32:00,40.0,37.0,29.52,ESE,106,4.0,11.0,89,0.01,,,0.30,,2013-02-26 00:32:00,
2013-02-25 18:42:00,40.0,37.0,29.52,ESE,106,4.0,11.0,89,0.01,,,0.30,,2013-02-26 00:42:00,
2013-02-25 18:51:00,40.0,37.0,29.50,ENE,72,5.0,11.0,89,0.01,,,0.30,,2013-02-26 00:51:00,
2013-02-25 19:02:00,40.0,37.0,29.50,NE,44,4.0,11.0,89,0.01,,,0.30,,2013-02-26 01:02:00,
2013-02-25 19:11:00,40.0,37.0,29.50,NE,44,4.0,11.0,89,0.01,,,0.30,,2013-02-26 01:11:00,
2013-02-25 19:21:00,40.0,37.0,29.50,East,90,5.0,12.0,90,0.00,,,0.30,,2013-02-26 01:21:00,
2013-02-25 19:32:00,40.0,37.0,29.49,ENE,57,3.0,9.0,90,0.00,,,0.30,,2013-02-26 01:32:00,
2013-02-25 19:42:00,40.0,37.0,29.49,ENE,57,3.0,9.0,90,0.00,,,0.30,,2013-02-26 01:42:00,
2013-02-25 19:51:00,40.0,37.0,29.49,ENE,61,4.0,10.0,90,0.00,,,0.30,,2013-02-26 01:51:00,
2013-02-25 20:01:00,40.0,37.0,29.48,ESE,116,3.0,9.0,90,0.00,,,0.30,,2013-02-26 02:01:00,
2013-02-25 20:11:00,40.0,37.0,29.48,ESE,116,3.0,9.0,90,0.00,,,0.30,,2013-02-26 02:11:00,
2013-02-25 20:21:00,40.0,38.0,29.47,East,99,4.0,8.0,91,0.00,,,0.30,,2013-02-26 02:21:00,
2013-02-25 20:32:00,40.0,38.0,29.47,East,80,5.0,11.0,91,0.00,,,0.30,,2013-02-26 02:32:00,
2013-02-25 20:42:00,40.0,38.0,29.47,East,80,5.0,11.0,91,0.00,,,0.30,,2013-02-26 02:42:00,
2013-02-25 20:52:00,40.0,38.0,29.47,ENE,73,4.0,9.0,91,0.00,,,0.30,,2013-02-26 02:52:00,
2013-02-25 21:02:00,40.0,37.0,29.47,ESE,121,4.0,14.0,90,0.00,,,0.30,,2013-02-26 03:02:00,
2013-02-25 21:11:00,40.0,37.0,29.47,ESE,121,4.0,14.0,90,0.00,,,0.30,,2013-02-26 03:11:00,
2013-02-25 21:21:00,40.0,37.0,29.47,ENE,75,4.0,10.0,89,0.00,,,0.30,,2013-02-26 03:21:00,
2013-02-25 21:32:00,40.0,37.0,29.48,ENE,78,4.0,8.0,90,0.01,,,0.31,,2013-02-26 03:32:00,
2013-02-25 21:42:00,40.0,37.0,29.48,ENE,78,4.0,8.0,90,0.01,,,0.31,,2013-02-26 03:42:00,
2013-02-25 21:52:00,39.0,37.0,29.47,ENE,77,5.0,11.0,92,0.09,,,0.39,,2013-02-26 03:52:00,
2013-02-25 22:01:00,39.0,37.0,29.47,ENE,73,4.0,11.0,93,0.12,,,0.42,,2013-02-26 04:01:00,
2013-02-25 22:11:00,39.0,37.0,29.47,ENE,73,4.0,11.0,93,0.12,,,0.42,,2013-02-26 04:11:00,
2013-02-25 22:21:00,39.0,37.0,29.47,ENE,76,4.0,9.0,92,0.14,,,0.44,,2013-02-26 04:21:00,
2013-02-25 22:32:00,39.0,37.0,29.47,ENE,76,4.0,9.0,92,0.14,,,0.44,,2013-02-26 04:32:00,
2013-02-25 22:42:00,39.0,37.0,29.47,ENE,76,4.0,9.0,92,0.14,,,0.44,,2013-02-26 04:42:00,
2013-02-25 22:51:00,38.0,36.0,29.46,ESE,111,0.0,7.0,93,0.06,,,0.45,,2013-02-26 04:51:00,
2013-02-25 23:01:00,38.0,36.0,29.46,East,92,0.0,6.0,93,0.03,,,0.45,,2013-02-26 05:01:00,
2013-02-25 23:12:00,38.0,36.0,29.46,East,92,0.0,6.0,93,0.03,,,0.45,,2013-02-26 05:12:00,
2013-02-25 23:21:00,38.0,36.0,29.46,ENE,74,2.0,7.0,93,0.01,,,0.45,,2013-02-26 05:21:00,
2013-02-25 23:32:00,38.0,36.0,29.45,NE,50,0.0,2.0,93,0.00,,,0.45,,2013-02-26 05:32:00,
2013-02-25 23:43:00,38.0,36.0,29.45,NE,50,0.0,2.0,93,0.00,,,0.45,,2013-02-26 05:43:00,
2013-02-25 23:52:00,37.0,35.0,29.45,NE,43,0.0,4.0,94,0.00,,,0.45,,2013-02-26 05:52:00,